Terminal Aerodrome Forecast
Issued by NWS Wilmington, OH

Current Version | Previous Version | Graphics & Text | Print | Product List | Glossary On
Versions: 1 2 3 4 5 6 7 8 9 10 11 12 13 14 15
000
FTUS41 KILN 281700
TAFILN
TAF
KILN 281730Z 2818/2918 07006KT P6SM SCT120
     FM290000 08004KT P6SM SCT120
     FM291000 10004KT 5SM BR SCT120
     FM291200 14005KT P6SM SCT120=

USA.gov is the U.S. government's official web portal to all federal, state and local government web resources and services.